sensor_id;sensor_type;location;lat;lon;timestamp;pressure;altitude;pressure_sealevel;temperature;humidity
63654;BME280;49809;47.418;19.080;2022-07-21T00:00:10;100600.22;;;21.46;58.21
63654;BME280;49809;47.418;19.080;2022-07-21T00:03:13;100606.25;;;21.43;57.87
63654;BME280;49809;47.418;19.080;2022-07-21T00:06:16;100598.62;;;21.37;57.59
63654;BME280;49809;47.418;19.080;2022-07-21T00:09:19;100602.41;;;21.36;57.39
63654;BME280;49809;47.418;19.080;2022-07-21T00:12:22;100615.88;;;21.27;56.98
63654;BME280;49809;47.418;19.080;2022-07-21T00:15:26;100615.41;;;21.25;56.52
63654;BME280;49809;47.418;19.080;2022-07-21T00:18:30;100616.34;;;21.20;56.30
63654;BME280;49809;47.418;19.080;2022-07-21T00:21:34;100621.91;;;21.15;56.40
63654;BME280;49809;47.418;19.080;2022-07-21T00:24:38;100620.56;;;21.13;55.80
63654;BME280;49809;47.418;19.080;2022-07-21T00:27:41;100623.56;;;21.11;54.91
63654;BME280;49809;47.418;19.080;2022-07-21T00:30:44;100631.06;;;21.14;55.76
63654;BME280;49809;47.418;19.080;2022-07-21T00:33:48;100628.97;;;21.11;54.78
63654;BME280;49809;47.418;19.080;2022-07-21T00:36:53;100631.97;;;21.10;54.51
63654;BME280;49809;47.418;19.080;2022-07-21T00:39:58;100630.22;;;21.05;53.50
63654;BME280;49809;47.418;19.080;2022-07-21T00:43:02;100627.19;;;21.07;53.76
63654;BME280;49809;47.418;19.080;2022-07-21T00:46:05;100638.03;;;21.15;53.20
63654;BME280;49809;47.418;19.080;2022-07-21T00:49:07;100627.31;;;21.33;53.36
63654;BME280;49809;47.418;19.080;2022-07-21T00:52:11;100627.31;;;21.33;54.16
63654;BME280;49809;47.418;19.080;2022-07-21T00:55:15;100633.78;;;21.40;53.42
63654;BME280;49809;47.418;19.080;2022-07-21T00:58:22;100627.16;;;21.55;52.19
63654;BME280;49809;47.418;19.080;2022-07-21T01:01:25;100625.88;;;21.69;50.69
63654;BME280;49809;47.418;19.080;2022-07-21T01:04:30;100631.62;;;21.94;50.40
63654;BME280;49809;47.418;19.080;2022-07-21T01:07:35;100624.00;;;21.87;50.98
63654;BME280;49809;47.418;19.080;2022-07-21T01:10:38;100625.56;;;21.88;50.94
63654;BME280;49809;47.418;19.080;2022-07-21T01:13:42;100622.72;;;21.76;51.59
63654;BME280;49809;47.418;19.080;2022-07-21T01:16:49;100625.88;;;21.61;53.04
63654;BME280;49809;47.418;19.080;2022-07-21T01:19:53;100625.25;;;21.47;53.26
63654;BME280;49809;47.418;19.080;2022-07-21T01:22:56;100625.09;;;21.35;54.05
63654;BME280;49809;47.418;19.080;2022-07-21T01:25:59;100626.97;;;21.25;55.00
63654;BME280;49809;47.418;19.080;2022-07-21T01:29:06;100624.59;;;21.15;54.76
63654;BME280;49809;47.418;19.080;2022-07-21T01:32:10;100624.22;;;21.08;54.80
63654;BME280;49809;47.418;19.080;2022-07-21T01:35:14;100621.66;;;21.03;55.36
63654;BME280;49809;47.418;19.080;2022-07-21T01:38:17;100629.22;;;20.93;55.86
63654;BME280;49809;47.418;19.080;2022-07-21T01:41:39;100619.87;;;20.81;56.03
63654;BME280;49809;47.418;19.080;2022-07-21T01:44:53;100620.31;;;20.75;56.06
63654;BME280;49809;47.418;19.080;2022-07-21T01:47:59;100621.09;;;20.75;57.28
63654;BME280;49809;47.418;19.080;2022-07-21T01:51:03;100624.72;;;20.71;57.12
63654;BME280;49809;47.418;19.080;2022-07-21T01:54:06;100624.19;;;20.60;57.38
63654;BME280;49809;47.418;19.080;2022-07-21T01:57:10;100616.91;;;20.52;57.57
63654;BME280;49809;47.418;19.080;2022-07-21T02:00:14;100619.72;;;20.47;57.89
63654;BME280;49809;47.418;19.080;2022-07-21T02:03:19;100617.31;;;20.46;58.59
63654;BME280;49809;47.418;19.080;2022-07-21T02:06:22;100616.97;;;20.38;58.14
63654;BME280;49809;47.418;19.080;2022-07-21T02:09:26;100623.59;;;20.32;58.38
63654;BME280;49809;47.418;19.080;2022-07-21T02:12:32;100625.78;;;20.30;58.88
63654;BME280;49809;47.418;19.080;2022-07-21T02:15:36;100624.41;;;20.33;58.87
63654;BME280;49809;47.418;19.080;2022-07-21T02:18:40;100623.03;;;20.22;59.12
63654;BME280;49809;47.418;19.080;2022-07-21T02:21:44;100629.00;;;20.19;59.44
63654;BME280;49809;47.418;19.080;2022-07-21T02:24:48;100625.03;;;20.16;59.95
63654;BME280;49809;47.418;19.080;2022-07-21T02:27:52;100627.22;;;20.14;60.08
63654;BME280;49809;47.418;19.080;2022-07-21T02:31:09;100629.91;;;20.14;59.24
63654;BME280;49809;47.418;19.080;2022-07-21T02:34:12;100639.91;;;20.14;59.66
63654;BME280;49809;47.418;19.080;2022-07-21T02:37:15;100636.72;;;20.12;59.64
63654;BME280;49809;47.418;19.080;2022-07-21T02:40:19;100639.69;;;20.10;59.42
63654;BME280;49809;47.418;19.080;2022-07-21T02:43:21;100640.19;;;20.12;59.90
63654;BME280;49809;47.418;19.080;2022-07-21T02:46:25;100642.38;;;20.10;58.84
63654;BME280;49809;47.418;19.080;2022-07-21T02:49:27;100643.97;;;20.11;59.38
63654;BME280;49809;47.418;19.080;2022-07-21T02:52:33;100638.59;;;20.11;59.59
63654;BME280;49809;47.418;19.080;2022-07-21T02:55:40;100635.12;;;20.11;59.89
63654;BME280;49809;47.418;19.080;2022-07-21T02:58:46;100637.59;;;20.29;58.06
63654;BME280;49809;47.418;19.080;2022-07-21T03:02:01;100641.09;;;20.30;57.88
63654;BME280;49809;47.418;19.080;2022-07-21T03:05:08;100639.50;;;20.29;58.68
63654;BME280;49809;47.418;19.080;2022-07-21T03:08:14;100639.31;;;20.25;58.88
63654;BME280;49809;47.418;19.080;2022-07-21T03:11:17;100645.66;;;20.29;59.49
63654;BME280;49809;47.418;19.080;2022-07-21T03:14:20;100642.62;;;20.22;59.47
63654;BME280;49809;47.418;19.080;2022-07-21T03:17:24;100640.06;;;20.17;59.33
63654;BME280;49809;47.418;19.080;2022-07-21T03:20:28;100639.09;;;20.13;59.31
63654;BME280;49809;47.418;19.080;2022-07-21T03:23:32;100638.59;;;20.11;59.49
63654;BME280;49809;47.418;19.080;2022-07-21T03:26:36;100645.69;;;20.07;59.89
63654;BME280;49809;47.418;19.080;2022-07-21T03:29:41;100637.94;;;20.06;60.41
63654;BME280;49809;47.418;19.080;2022-07-21T03:32:44;100637.00;;;20.10;60.31
63654;BME280;49809;47.418;19.080;2022-07-21T03:35:52;100639.22;;;20.08;59.76
63654;BME280;49809;47.418;19.080;2022-07-21T03:38:55;100639.81;;;20.05;60.40
63654;BME280;49809;47.418;19.080;2022-07-21T03:41:58;100643.47;;;20.09;60.35
63654;BME280;49809;47.418;19.080;2022-07-21T03:45:02;100644.28;;;20.10;60.78
63654;BME280;49809;47.418;19.080;2022-07-21T03:48:08;100651.41;;;20.14;60.56
63654;BME280;49809;47.418;19.080;2022-07-21T03:51:11;100642.25;;;20.15;61.05
63654;BME280;49809;47.418;19.080;2022-07-21T03:54:15;100645.31;;;20.22;59.46
63654;BME280;49809;47.418;19.080;2022-07-21T03:57:18;100645.44;;;20.39;58.58
63654;BME280;49809;47.418;19.080;2022-07-21T04:00:30;100652.97;;;20.51;59.19
63654;BME280;49809;47.418;19.080;2022-07-21T04:03:35;100651.41;;;20.59;58.57
63654;BME280;49809;47.418;19.080;2022-07-21T04:06:39;100656.03;;;20.67;60.85
63654;BME280;49809;47.418;19.080;2022-07-21T04:09:42;100662.38;;;20.71;58.66
63654;BME280;49809;47.418;19.080;2022-07-21T04:12:45;100668.59;;;20.80;59.37
63654;BME280;49809;47.418;19.080;2022-07-21T04:15:51;100663.41;;;20.92;57.51
63654;BME280;49809;47.418;19.080;2022-07-21T04:18:54;100662.66;;;21.00;59.29
63654;BME280;49809;47.418;19.080;2022-07-21T04:21:58;100668.06;;;21.09;59.92
63654;BME280;49809;47.418;19.080;2022-07-21T04:25:02;100679.53;;;21.14;61.08
63654;BME280;49809;47.418;19.080;2022-07-21T04:28:05;100672.88;;;21.20;60.58
63654;BME280;49809;47.418;19.080;2022-07-21T04:31:09;100658.50;;;21.34;58.94
63654;BME280;49809;47.418;19.080;2022-07-21T04:34:12;100668.81;;;21.40;59.83
63654;BME280;49809;47.418;19.080;2022-07-21T04:37:16;100669.62;;;21.49;59.83
63654;BME280;49809;47.418;19.080;2022-07-21T04:40:22;100672.19;;;21.63;59.67
63654;BME280;49809;47.418;19.080;2022-07-21T04:43:25;100679.81;;;21.78;59.36
63654;BME280;49809;47.418;19.080;2022-07-21T04:46:28;100672.97;;;21.89;57.67
63654;BME280;49809;47.418;19.080;2022-07-21T04:49:32;100674.41;;;22.13;54.35
63654;BME280;49809;47.418;19.080;2022-07-21T04:52:35;100675.06;;;22.27;60.48
63654;BME280;49809;47.418;19.080;2022-07-21T04:55:38;100671.37;;;22.40;54.96
63654;BME280;49809;47.418;19.080;2022-07-21T04:58:41;100667.69;;;22.53;54.65
63654;BME280;49809;47.418;19.080;2022-07-21T05:01:44;100672.88;;;22.67;54.03
63654;BME280;49809;47.418;19.080;2022-07-21T05:04:50;100667.75;;;22.82;52.96
63654;BME280;49809;47.418;19.080;2022-07-21T05:07:53;100675.78;;;23.00;53.30
63654;BME280;49809;47.418;19.080;2022-07-21T05:10:57;100684.66;;;23.09;54.97
63654;BME280;49809;47.418;19.080;2022-07-21T05:14:00;100682.69;;;23.18;54.49
63654;BME280;49809;47.418;19.080;2022-07-21T05:17:04;100682.06;;;23.42;52.31
63654;BME280;49809;47.418;19.080;2022-07-21T05:20:07;100678.97;;;23.60;49.58
63654;BME280;49809;47.418;19.080;2022-07-21T05:23:11;100683.59;;;23.80;48.57
63654;BME280;49809;47.418;19.080;2022-07-21T05:26:17;100689.94;;;23.97;48.13
63654;BME280;49809;47.418;19.080;2022-07-21T05:29:21;100694.97;;;24.07;47.94
63654;BME280;49809;47.418;19.080;2022-07-21T05:32:24;100692.16;;;24.24;48.10
63654;BME280;49809;47.418;19.080;2022-07-21T05:35:27;100699.28;;;24.41;48.92
63654;BME280;49809;47.418;19.080;2022-07-21T05:38:33;100698.66;;;24.56;49.11
63654;BME280;49809;47.418;19.080;2022-07-21T05:41:36;100703.75;;;24.69;47.47
63654;BME280;49809;47.418;19.080;2022-07-21T05:44:39;100712.94;;;24.89;47.02
63654;BME280;49809;47.418;19.080;2022-07-21T05:47:44;100700.34;;;25.05;45.79
63654;BME280;49809;47.418;19.080;2022-07-21T05:50:46;100706.19;;;25.20;45.03
63654;BME280;49809;47.418;19.080;2022-07-21T05:53:52;100705.75;;;25.30;46.56
63654;BME280;49809;47.418;19.080;2022-07-21T05:57:19;100705.06;;;25.45;45.90
63654;BME280;49809;47.418;19.080;2022-07-21T06:00:25;100702.47;;;25.61;44.32
63654;BME280;49809;47.418;19.080;2022-07-21T06:03:38;100703.56;;;25.72;43.42
63654;BME280;49809;47.418;19.080;2022-07-21T06:06:43;100696.75;;;25.90;43.03
63654;BME280;49809;47.418;19.080;2022-07-21T06:09:47;100707.03;;;26.12;42.49
63654;BME280;49809;47.418;19.080;2022-07-21T06:13:04;100706.75;;;26.29;41.19
63654;BME280;49809;47.418;19.080;2022-07-21T06:16:09;100694.34;;;26.44;41.28
63654;BME280;49809;47.418;19.080;2022-07-21T06:19:14;100694.84;;;26.62;42.27
63654;BME280;49809;47.418;19.080;2022-07-21T06:22:17;100703.09;;;26.81;41.31
63654;BME280;49809;47.418;19.080;2022-07-21T06:25:22;100701.87;;;26.94;39.52
63654;BME280;49809;47.418;19.080;2022-07-21T06:28:40;100708.78;;;27.07;40.99
63654;BME280;49809;47.418;19.080;2022-07-21T06:31:44;100704.13;;;27.23;41.20
63654;BME280;49809;47.418;19.080;2022-07-21T06:34:50;100707.44;;;27.33;38.69
63654;BME280;49809;47.418;19.080;2022-07-21T06:37:53;100709.09;;;27.53;39.63
63654;BME280;49809;47.418;19.080;2022-07-21T06:41:03;100703.34;;;27.74;40.03
63654;BME280;49809;47.418;19.080;2022-07-21T06:44:07;100706.97;;;27.81;39.34
63654;BME280;49809;47.418;19.080;2022-07-21T06:47:10;100702.41;;;28.04;39.44
63654;BME280;49809;47.418;19.080;2022-07-21T06:53:54;100704.97;;;28.36;39.08
63654;BME280;49809;47.418;19.080;2022-07-21T06:56:57;100704.69;;;28.41;37.32
63654;BME280;49809;47.418;19.080;2022-07-21T07:00:03;100700.19;;;28.71;36.41
63654;BME280;49809;47.418;19.080;2022-07-21T07:03:05;100702.78;;;28.87;37.41
63654;BME280;49809;47.418;19.080;2022-07-21T07:06:09;100703.25;;;28.92;35.52
63654;BME280;49809;47.418;19.080;2022-07-21T07:09:14;100699.25;;;29.09;36.28
63654;BME280;49809;47.418;19.080;2022-07-21T07:14:16;100704.53;;;29.48;35.00
63654;BME280;49809;47.418;19.080;2022-07-21T07:17:24;100706.66;;;29.61;35.32
63654;BME280;49809;47.418;19.080;2022-07-21T07:20:31;100707.47;;;29.92;34.59
63654;BME280;49809;47.418;19.080;2022-07-21T07:23:34;100703.72;;;30.07;34.01
63654;BME280;49809;47.418;19.080;2022-07-21T07:26:38;100703.19;;;30.31;32.83
63654;BME280;49809;47.418;19.080;2022-07-21T07:29:41;100692.41;;;30.45;32.92
63654;BME280;49809;47.418;19.080;2022-07-21T07:32:46;100696.84;;;30.53;32.62
63654;BME280;49809;47.418;19.080;2022-07-21T07:35:52;100694.81;;;30.91;32.10
63654;BME280;49809;47.418;19.080;2022-07-21T07:38:58;100694.22;;;31.12;31.87
63654;BME280;49809;47.418;19.080;2022-07-21T07:42:02;100695.44;;;31.21;31.71
63654;BME280;49809;47.418;19.080;2022-07-21T07:45:06;100696.69;;;31.34;32.33
63654;BME280;49809;47.418;19.080;2022-07-21T07:48:10;100695.03;;;31.88;31.91
63654;BME280;49809;47.418;19.080;2022-07-21T07:51:14;100696.72;;;32.14;30.98
63654;BME280;49809;47.418;19.080;2022-07-21T07:54:19;100690.50;;;32.49;30.08
63654;BME280;49809;47.418;19.080;2022-07-21T07:57:23;100694.03;;;33.02;30.08
63654;BME280;49809;47.418;19.080;2022-07-21T08:00:26;100691.25;;;33.48;27.22
63654;BME280;49809;47.418;19.080;2022-07-21T08:03:51;100699.41;;;33.66;28.06
63654;BME280;49809;47.418;19.080;2022-07-21T08:06:57;100686.22;;;32.97;27.36
63654;BME280;49809;47.418;19.080;2022-07-21T08:10:10;100677.66;;;34.11;27.59
63654;BME280;49809;47.418;19.080;2022-07-21T08:13:37;100685.78;;;34.32;26.07
63654;BME280;49809;47.418;19.080;2022-07-21T08:16:40;100683.22;;;33.96;27.66
63654;BME280;49809;47.418;19.080;2022-07-21T08:19:43;100681.16;;;34.73;26.64
63654;BME280;49809;47.418;19.080;2022-07-21T08:22:51;100687.94;;;35.06;27.16
63654;BME280;49809;47.418;19.080;2022-07-21T08:25:56;100678.94;;;35.43;25.86
63654;BME280;49809;47.418;19.080;2022-07-21T08:29:04;100692.31;;;35.41;24.56
63654;BME280;49809;47.418;19.080;2022-07-21T08:32:09;100690.34;;;35.76;24.48
63654;BME280;49809;47.418;19.080;2022-07-21T08:35:14;100683.84;;;36.46;23.27
63654;BME280;49809;47.418;19.080;2022-07-21T08:38:19;100673.56;;;36.24;23.34
63654;BME280;49809;47.418;19.080;2022-07-21T08:41:23;100674.87;;;35.85;24.22
63654;BME280;49809;47.418;19.080;2022-07-21T08:44:26;100674.97;;;36.62;23.74
63654;BME280;49809;47.418;19.080;2022-07-21T08:47:32;100670.13;;;36.70;23.38
63654;BME280;49809;47.418;19.080;2022-07-21T08:50:37;100668.03;;;37.20;22.53
63654;BME280;49809;47.418;19.080;2022-07-21T08:53:44;100675.94;;;37.77;21.45
63654;BME280;49809;47.418;19.080;2022-07-21T08:56:48;100677.25;;;38.25;21.32
63654;BME280;49809;47.418;19.080;2022-07-21T08:59:55;100660.87;;;36.99;22.32
63654;BME280;49809;47.418;19.080;2022-07-21T09:03:21;100659.12;;;38.24;21.31
63654;BME280;49809;47.418;19.080;2022-07-21T09:06:24;100659.19;;;38.20;20.97
63654;BME280;49809;47.418;19.080;2022-07-21T09:09:28;100663.53;;;38.38;22.43
63654;BME280;49809;47.418;19.080;2022-07-21T09:12:48;100658.28;;;38.59;19.81
63654;BME280;49809;47.418;19.080;2022-07-21T09:15:54;100651.28;;;38.55;19.76
63654;BME280;49809;47.418;19.080;2022-07-21T09:18:59;100653.53;;;39.75;18.24
63654;BME280;49809;47.418;19.080;2022-07-21T09:22:07;100659.31;;;38.65;19.29
63654;BME280;49809;47.418;19.080;2022-07-21T09:25:34;100650.25;;;39.10;18.43
63654;BME280;49809;47.418;19.080;2022-07-21T09:28:40;100647.56;;;39.77;19.19
63654;BME280;49809;47.418;19.080;2022-07-21T09:31:46;100646.25;;;40.32;18.17
63654;BME280;49809;47.418;19.080;2022-07-21T09:34:54;100643.38;;;41.04;17.47
63654;BME280;49809;47.418;19.080;2022-07-21T09:38:12;100643.69;;;40.37;18.49
63654;BME280;49809;47.418;19.080;2022-07-21T09:41:17;100633.72;;;40.27;17.76
63654;BME280;49809;47.418;19.080;2022-07-21T09:44:30;100628.28;;;40.71;17.61
63654;BME280;49809;47.418;19.080;2022-07-21T09:47:40;100629.94;;;41.25;17.02
63654;BME280;49809;47.418;19.080;2022-07-21T09:50:43;100623.22;;;41.13;16.70
63654;BME280;49809;47.418;19.080;2022-07-21T09:53:50;100619.47;;;41.07;17.52
63654;BME280;49809;47.418;19.080;2022-07-21T09:56:57;100615.72;;;42.24;17.00
63654;BME280;49809;47.418;19.080;2022-07-21T10:00:00;100621.69;;;41.64;17.89
63654;BME280;49809;47.418;19.080;2022-07-21T10:03:14;100618.56;;;41.93;17.50
63654;BME280;49809;47.418;19.080;2022-07-21T10:06:20;100614.09;;;40.91;17.76
63654;BME280;49809;47.418;19.080;2022-07-21T10:09:24;100609.06;;;40.04;17.87
63654;BME280;49809;47.418;19.080;2022-07-21T10:12:30;100607.41;;;40.32;18.94
63654;BME280;49809;47.418;19.080;2022-07-21T10:15:33;100600.59;;;40.46;17.90
63654;BME280;49809;47.418;19.080;2022-07-21T10:19:02;100604.19;;;41.86;17.00
63654;BME280;49809;47.418;19.080;2022-07-21T10:22:26;100603.81;;;42.24;16.14
63654;BME280;49809;47.418;19.080;2022-07-21T10:25:33;100610.81;;;42.37;16.88
63654;BME280;49809;47.418;19.080;2022-07-21T10:28:37;100606.50;;;42.64;15.88
63654;BME280;49809;47.418;19.080;2022-07-21T10:31:45;100596.28;;;41.44;17.30
63654;BME280;49809;47.418;19.080;2022-07-21T10:34:49;100602.09;;;42.17;16.68
63654;BME280;49809;47.418;19.080;2022-07-21T10:37:53;100595.38;;;42.45;16.69
63654;BME280;49809;47.418;19.080;2022-07-21T10:40:58;100589.28;;;43.29;15.34
63654;BME280;49809;47.418;19.080;2022-07-21T10:47:30;100583.28;;;42.21;17.66
63654;BME280;49809;47.418;19.080;2022-07-21T10:50:41;100589.16;;;42.32;17.67
63654;BME280;49809;47.418;19.080;2022-07-21T10:54:17;100584.12;;;41.91;16.63
63654;BME280;49809;47.418;19.080;2022-07-21T10:57:24;100581.44;;;42.91;16.23
63654;BME280;49809;47.418;19.080;2022-07-21T11:00:35;100577.94;;;42.72;15.91
63654;BME280;49809;47.418;19.080;2022-07-21T11:03:40;100574.03;;;42.88;15.22
63654;BME280;49809;47.418;19.080;2022-07-21T11:06:45;100560.75;;;42.74;16.07
63654;BME280;49809;47.418;19.080;2022-07-21T11:17:00;100553.59;;;43.09;15.84
63654;BME280;49809;47.418;19.080;2022-07-21T11:20:14;100540.59;;;42.97;15.56
63654;BME280;49809;47.418;19.080;2022-07-21T11:23:17;100536.88;;;43.09;15.56
63654;BME280;49809;47.418;19.080;2022-07-21T11:26:25;100541.06;;;43.56;16.32
63654;BME280;49809;47.418;19.080;2022-07-21T11:29:32;100542.63;;;42.15;16.44
63654;BME280;49809;47.418;19.080;2022-07-21T11:32:37;100536.91;;;42.91;14.92
63654;BME280;49809;47.418;19.080;2022-07-21T11:35:40;100532.28;;;42.88;16.59
63654;BME280;49809;47.418;19.080;2022-07-21T11:42:12;100527.97;;;42.78;15.18
63654;BME280;49809;47.418;19.080;2022-07-21T11:45:16;100518.84;;;43.38;15.27
63654;BME280;49809;47.418;19.080;2022-07-21T11:48:32;100522.31;;;43.89;15.85
63654;BME280;49809;47.418;19.080;2022-07-21T11:51:36;100511.03;;;43.51;15.25
63654;BME280;49809;47.418;19.080;2022-07-21T11:54:51;100510.28;;;43.50;15.65
63654;BME280;49809;47.418;19.080;2022-07-21T11:57:54;100507.94;;;41.39;16.65
63654;BME280;49809;47.418;19.080;2022-07-21T12:01:07;100503.38;;;42.58;16.04
63654;BME280;49809;47.418;19.080;2022-07-21T12:04:12;100501.81;;;44.69;14.09
63654;BME280;49809;47.418;19.080;2022-07-21T12:07:29;100504.44;;;43.96;15.25
63654;BME280;49809;47.418;19.080;2022-07-21T12:10:33;100494.47;;;44.42;14.27
63654;BME280;49809;47.418;19.080;2022-07-21T12:13:56;100494.97;;;44.70;14.81
63654;BME280;49809;47.418;19.080;2022-07-21T12:17:01;100497.47;;;44.53;13.66
63654;BME280;49809;47.418;19.080;2022-07-21T12:20:07;100491.19;;;44.44;14.87
63654;BME280;49809;47.418;19.080;2022-07-21T12:23:19;100490.53;;;44.10;14.98
63654;BME280;49809;47.418;19.080;2022-07-21T12:26:22;100483.94;;;43.18;14.56
63654;BME280;49809;47.418;19.080;2022-07-21T12:29:29;100478.50;;;43.57;14.70
63654;BME280;49809;47.418;19.080;2022-07-21T12:36:05;100473.69;;;43.81;13.69
63654;BME280;49809;47.418;19.080;2022-07-21T12:39:17;100476.22;;;42.95;15.44
63654;BME280;49809;47.418;19.080;2022-07-21T12:42:40;100473.06;;;43.53;15.49
63654;BME280;49809;47.418;19.080;2022-07-21T12:49:08;100461.00;;;41.32;16.29
63654;BME280;49809;47.418;19.080;2022-07-21T12:52:16;100454.28;;;40.37;17.16
63654;BME280;49809;47.418;19.080;2022-07-21T12:55:22;100448.66;;;40.50;16.46
63654;BME280;49809;47.418;19.080;2022-07-21T12:58:39;100444.59;;;40.42;17.95
63654;BME280;49809;47.418;19.080;2022-07-21T13:01:42;100437.72;;;38.89;18.74
63654;BME280;49809;47.418;19.080;2022-07-21T13:04:47;100441.84;;;39.09;18.63
63654;BME280;49809;47.418;19.080;2022-07-21T13:07:51;100433.87;;;39.37;17.52
63654;BME280;49809;47.418;19.080;2022-07-21T13:10:54;100434.13;;;38.63;18.15
63654;BME280;49809;47.418;19.080;2022-07-21T13:14:08;100431.38;;;38.76;19.27
63654;BME280;49809;47.418;19.080;2022-07-21T13:17:10;100428.66;;;38.47;18.96
63654;BME280;49809;47.418;19.080;2022-07-21T13:20:16;100421.19;;;38.85;18.83
63654;BME280;49809;47.418;19.080;2022-07-21T13:23:21;100423.19;;;38.72;18.91
63654;BME280;49809;47.418;19.080;2022-07-21T13:26:24;100421.81;;;38.64;19.70
63654;BME280;49809;47.418;19.080;2022-07-21T13:29:29;100420.28;;;38.63;20.03
63654;BME280;49809;47.418;19.080;2022-07-21T13:32:33;100405.78;;;38.30;18.38
63654;BME280;49809;47.418;19.080;2022-07-21T13:35:39;100406.47;;;38.63;18.91
63654;BME280;49809;47.418;19.080;2022-07-21T13:38:44;100405.59;;;38.08;18.96
63654;BME280;49809;47.418;19.080;2022-07-21T13:41:47;100395.75;;;38.07;19.07
63654;BME280;49809;47.418;19.080;2022-07-21T13:45:10;100394.28;;;38.03;18.55
63654;BME280;49809;47.418;19.080;2022-07-21T13:52:02;100396.91;;;38.22;19.45
63654;BME280;49809;47.418;19.080;2022-07-21T13:55:05;100385.38;;;38.11;20.14
63654;BME280;49809;47.418;19.080;2022-07-21T13:58:26;100392.13;;;37.94;19.23
63654;BME280;49809;47.418;19.080;2022-07-21T14:01:30;100389.50;;;37.74;19.46
63654;BME280;49809;47.418;19.080;2022-07-21T14:04:33;100384.84;;;37.71;19.02
63654;BME280;49809;47.418;19.080;2022-07-21T14:07:38;100378.25;;;37.49;18.78
63654;BME280;49809;47.418;19.080;2022-07-21T14:10:41;100373.88;;;37.68;19.08
63654;BME280;49809;47.418;19.080;2022-07-21T14:13:44;100368.53;;;37.61;19.35
63654;BME280;49809;47.418;19.080;2022-07-21T14:16:50;100365.09;;;37.57;20.08
63654;BME280;49809;47.418;19.080;2022-07-21T14:19:56;100365.50;;;37.39;21.27
63654;BME280;49809;47.418;19.080;2022-07-21T14:22:58;100362.75;;;37.55;18.72
63654;BME280;49809;47.418;19.080;2022-07-21T14:26:01;100368.19;;;37.59;19.55
63654;BME280;49809;47.418;19.080;2022-07-21T14:29:06;100365.06;;;37.73;19.65
63654;BME280;49809;47.418;19.080;2022-07-21T14:32:09;100359.91;;;37.59;18.74
63654;BME280;49809;47.418;19.080;2022-07-21T14:35:14;100358.44;;;37.54;18.06
63654;BME280;49809;47.418;19.080;2022-07-21T14:38:19;100352.56;;;37.68;18.69
63654;BME280;49809;47.418;19.080;2022-07-21T14:41:22;100352.50;;;37.56;18.58
63654;BME280;49809;47.418;19.080;2022-07-21T14:44:30;100346.63;;;37.54;18.11
63654;BME280;49809;47.418;19.080;2022-07-21T14:47:35;100346.00;;;37.46;18.48
63654;BME280;49809;47.418;19.080;2022-07-21T14:50:38;100348.87;;;37.88;18.89
63654;BME280;49809;47.418;19.080;2022-07-21T14:53:44;100346.38;;;37.93;18.53
63654;BME280;49809;47.418;19.080;2022-07-21T15:00:41;100344.22;;;37.56;21.47
63654;BME280;49809;47.418;19.080;2022-07-21T15:03:51;100343.84;;;37.70;18.08
63654;BME280;49809;47.418;19.080;2022-07-21T15:22:33;100336.06;;;37.65;18.79
63654;BME280;49809;47.418;19.080;2022-07-21T15:37:22;100306.22;;;37.89;16.54
63654;BME280;49809;47.418;19.080;2022-07-21T15:40:33;100309.13;;;37.98;16.55
63654;BME280;49809;47.418;19.080;2022-07-21T15:43:38;100310.72;;;37.99;16.95
63654;BME280;49809;47.418;19.080;2022-07-21T15:47:12;100304.91;;;37.93;17.72
63654;BME280;49809;47.418;19.080;2022-07-21T15:50:27;100307.25;;;37.95;17.20
63654;BME280;49809;47.418;19.080;2022-07-21T15:53:35;100304.56;;;37.91;17.08
63654;BME280;49809;47.418;19.080;2022-07-21T15:56:41;100309.34;;;37.91;16.96
63654;BME280;49809;47.418;19.080;2022-07-21T15:59:47;100306.53;;;38.07;16.63
63654;BME280;49809;47.418;19.080;2022-07-21T16:02:55;100308.75;;;38.12;17.34
63654;BME280;49809;47.418;19.080;2022-07-21T16:06:00;100301.47;;;38.18;17.91
63654;BME280;49809;47.418;19.080;2022-07-21T16:09:05;100302.44;;;37.82;16.58
63654;BME280;49809;47.418;19.080;2022-07-21T16:12:20;100304.38;;;37.69;16.92
63654;BME280;49809;47.418;19.080;2022-07-21T16:22:57;100294.84;;;37.41;17.19
63654;BME280;49809;47.418;19.080;2022-07-21T16:26:26;100298.13;;;37.20;17.55
63654;BME280;49809;47.418;19.080;2022-07-21T16:29:57;100298.84;;;37.08;18.97
63654;BME280;49809;47.418;19.080;2022-07-21T16:33:19;100291.56;;;36.82;18.30
63654;BME280;49809;47.418;19.080;2022-07-21T16:36:32;100290.12;;;36.57;18.11
63654;BME280;49809;47.418;19.080;2022-07-21T16:39:39;100295.16;;;36.63;18.53
63654;BME280;49809;47.418;19.080;2022-07-21T16:42:50;100282.00;;;36.50;19.14
63654;BME280;49809;47.418;19.080;2022-07-21T16:45:55;100286.44;;;36.28;18.98
63654;BME280;49809;47.418;19.080;2022-07-21T16:48:59;100294.25;;;36.10;19.23
63654;BME280;49809;47.418;19.080;2022-07-21T16:52:23;100294.75;;;36.05;19.35
63654;BME280;49809;47.418;19.080;2022-07-21T16:59:20;100291.37;;;35.78;19.73
63654;BME280;49809;47.418;19.080;2022-07-21T17:06:10;100292.81;;;35.62;20.29
63654;BME280;49809;47.418;19.080;2022-07-21T17:09:33;100287.03;;;35.34;20.95
63654;BME280;49809;47.418;19.080;2022-07-21T17:12:41;100290.47;;;35.14;21.59
63654;BME280;49809;47.418;19.080;2022-07-21T17:19:39;100285.91;;;34.77;21.53
63654;BME280;49809;47.418;19.080;2022-07-21T17:22:57;100283.72;;;34.65;22.10